Time;durP1;ratioP1;P1;durP2;ratioP2;P2;SDS_P1;SDS_P2;PMS_P1;PMS_P2;Temp;Humidity;BMP_temperature;BMP_pressure;BME280_temperature;BME280_humidity;BME280_pressure;Samples;Min_cycle;Max_cycle;Signal;HPM_P1;HPM_P2
2022/08/07 00:01:22;;;;;;;3.95;2.38;;;24.80;96.70;;;;;;5011728;28;20121;-77
2022/08/07 00:03:47;;;;;;;4.45;2.20;;;24.80;97.10;;;;;;5001248;28;20109;-75
2022/08/07 00:06:13;;;;;;;4.43;2.20;;;24.70;99.90;;;;;;5007748;28;20105;-72
2022/08/07 00:08:41;;;;;;;3.10;2.13;;;;;;;;;;5011388;28;20026;-77
2022/08/07 00:11:07;;;;;;;7.40;2.30;;;24.70;99.90;;;;;;5011450;28;20076;-67
2022/08/07 00:13:33;;;;;;;3.60;2.45;;;24.60;99.90;;;;;;5002836;28;20396;-66
2022/08/07 00:15:59;;;;;;;4.30;2.15;;;24.70;99.90;;;;;;5014560;28;20022;-77
2022/08/07 00:18:27;;;;;;;6.38;3.00;;;;;;;;;;5024376;28;20364;-76
2022/08/07 00:20:58;;;;;;;6.15;2.35;;;24.50;99.90;;;;;;5028199;28;20475;-76
2022/08/07 00:23:25;;;;;;;5.95;3.35;;;24.40;99.90;;;;;;5017078;28;20033;-77
2022/08/07 00:25:51;;;;;;;7.30;2.25;;;24.50;99.90;;;;;;5015149;28;20041;-76
2022/08/07 00:28:18;;;;;;;4.40;2.10;;;24.30;97.40;;;;;;5013751;28;20046;-74
2022/08/07 00:30:44;;;;;;;8.70;2.38;;;24.20;97.50;;;;;;5014913;28;20061;-78
2022/08/07 00:33:10;;;;;;;6.82;2.50;;;24.20;97.30;;;;;;5030621;28;20116;-76
2022/08/07 00:35:36;;;;;;;9.77;3.10;;;24.20;97.50;;;;;;5015722;28;20029;-77
2022/08/07 00:38:02;;;;;;;7.60;2.20;;;24.20;97.40;;;;;;5013568;28;20038;-74
2022/08/07 00:40:29;;;;;;;2.78;1.70;;;24.20;97.40;;;;;;5015023;28;20026;-77
2022/08/07 00:42:55;;;;;;;6.97;2.72;;;24.20;97.50;;;;;;5024124;28;20037;-77
2022/08/07 00:45:21;;;;;;;3.75;2.30;;;24.20;97.40;;;;;;5014683;28;20120;-77
2022/08/07 00:47:48;;;;;;;7.75;2.45;;;24.20;97.30;;;;;;5045209;28;20037;-78
2022/08/07 00:50:15;;;;;;;5.72;2.40;;;24.00;97.60;;;;;;5025899;28;20037;-77
2022/08/07 00:52:42;;;;;;;4.82;2.47;;;24.10;97.70;;;;;;5006722;28;20046;-77
2022/08/07 00:55:08;;;;;;;5.85;2.00;;;24.00;97.70;;;;;;5016553;28;20668;-77
2022/08/07 00:57:34;;;;;;;8.38;1.58;;;24.00;98.50;;;;;;5030479;28;20022;-76
2022/08/07 01:00:00;;;;;;;6.68;1.92;;;;;;;;;;5013720;28;20091;-76
2022/08/07 01:02:26;;;;;;;7.82;1.55;;;;;;;;;;5014543;28;20053;-72
2022/08/07 01:04:52;;;;;;;5.45;2.00;;;23.80;99.90;;;;;;5014700;28;20022;-76
2022/08/07 01:07:21;;;;;;;3.40;1.40;;;;;;;;;;5014794;28;20021;-76
2022/08/07 01:09:47;;;;;;;3.88;1.05;;;23.50;99.90;;;;;;5015211;28;20037;-77
2022/08/07 01:12:16;;;;;;;3.88;1.30;;;23.50;99.90;;;;;;5013902;28;20030;-70
2022/08/07 01:14:44;;;;;;;1.38;1.10;;;23.40;99.90;;;;;;5014094;28;20052;-78
2022/08/07 01:17:10;;;;;;;2.83;1.27;;;23.30;99.90;;;;;;5014401;28;20041;-77
2022/08/07 01:19:37;;;;;;;2.70;1.50;;;23.20;99.90;;;;;;5013004;28;20032;-78
2022/08/07 01:22:03;;;;;;;1.88;1.52;;;23.20;99.90;;;;;;5013805;28;20069;-77
2022/08/07 01:24:38;;;;;;;4.00;1.40;;;23.10;99.90;;;;;;5012759;28;20071;-77
2022/08/07 01:27:05;;;;;;;3.10;1.70;;;23.10;99.90;;;;;;5013423;28;20037;-77
2022/08/07 01:29:32;;;;;;;5.15;1.00;;;;;;;;;;5028981;28;20014;-77
2022/08/07 01:31:59;;;;;;;8.95;1.70;;;23.40;99.90;;;;;;5029359;28;20084;-77
2022/08/07 01:34:31;;;;;;;3.95;1.55;;;22.90;99.90;;;;;;5008487;28;20096;-75
2022/08/07 01:37:01;;;;;;;2.15;1.30;;;22.90;99.90;;;;;;5018942;28;20026;-78
2022/08/07 01:39:29;;;;;;;1.92;1.00;;;;;;;;;;5005200;28;20113;-77
2022/08/07 01:42:01;;;;;;;5.32;1.73;;;22.80;99.90;;;;;;5045933;28;20036;-77
2022/08/07 01:44:30;;;;;;;1.55;1.23;;;22.70;99.90;;;;;;5010015;28;20046;-76
2022/08/07 01:46:57;;;;;;;3.45;1.50;;;22.80;99.90;;;;;;5026932;28;20069;-76
2022/08/07 01:49:25;;;;;;;4.05;1.50;;;;;;;;;;5008166;28;20026;-68
2022/08/07 01:51:52;;;;;;;3.83;1.40;;;22.60;99.90;;;;;;5026925;28;20056;-76
2022/08/07 01:54:20;;;;;;;2.45;1.13;;;22.60;99.90;;;;;;5043117;28;20041;-73
2022/08/07 01:57:14;;;;;;;1.77;1.10;;;22.50;99.90;;;;;;5044363;28;20022;-70
2022/08/07 01:59:43;;;;;;;8.25;1.77;;;;;;;;;;5020271;28;20477;-78
2022/08/07 02:02:24;;;;;;;5.65;1.83;;;22.50;99.90;;;;;;5010147;28;20042;-68
2022/08/07 02:05:04;;;;;;;1.23;1.05;;;;;;;;;;5027192;28;20026;-77
2022/08/07 02:07:45;;;;;;;3.40;1.30;;;22.30;99.90;;;;;;5007358;28;20033;-67
2022/08/07 02:10:13;;;;;;;10.50;1.58;;;22.30;99.90;;;;;;5011192;28;20507;-73
2022/08/07 02:12:42;;;;;;;1.73;1.25;;;22.20;99.90;;;;;;5025317;28;20476;-66
2022/08/07 02:15:13;;;;;;;2.03;1.35;;;22.10;99.90;;;;;;5042369;28;20049;-67
2022/08/07 02:17:47;;;;;;;2.95;1.67;;;;;;;;;;5024673;28;20026;-76
2022/08/07 02:20:15;;;;;;;1.52;1.27;;;22.10;99.90;;;;;;5008364;28;20136;-74
2022/08/07 02:22:41;;;;;;;6.20;1.65;;;22.00;99.90;;;;;;5009692;28;20041;-76
2022/08/07 02:25:09;;;;;;;2.28;1.25;;;22.00;99.90;;;;;;5040662;28;20030;-77
2022/08/07 02:27:38;;;;;;;2.05;1.27;;;22.00;99.90;;;;;;5023399;28;20030;-77
2022/08/07 02:30:05;;;;;;;2.65;1.20;;;;;;;;;;5006463;28;20443;-73
2022/08/07 02:32:37;;;;;;;4.32;1.58;;;21.80;99.90;;;;;;5011279;28;20053;-75
2022/08/07 02:35:04;;;;;;;9.68;1.85;;;;;;;;;;5006416;28;20057;-77
2022/08/07 02:37:34;;;;;;;3.00;1.58;;;21.80;99.90;;;;;;4992988;28;20037;-73
2022/08/07 02:40:04;;;;;;;2.47;1.27;;;21.70;99.90;;;;;;5041810;28;20125;-77
2022/08/07 02:42:31;;;;;;;2.63;1.10;;;21.70;99.90;;;;;;5044298;28;20044;-66
2022/08/07 02:45:00;;;;;;;2.05;1.30;;;;;;;;;;5021287;28;20774;-74
2022/08/07 02:47:28;;;;;;;2.97;1.60;;;21.70;99.90;;;;;;5024683;28;20053;-72
2022/08/07 02:50:04;;;;;;;3.42;1.70;;;21.70;99.90;;;;;;5007419;28;20113;-74
2022/08/07 02:52:46;;;;;;;3.60;1.40;;;21.70;99.90;;;;;;5011173;28;20057;-69
2022/08/07 02:55:21;;;;;;;3.05;1.73;;;21.80;99.90;;;;;;5010654;28;20029;-74
2022/08/07 02:57:50;;;;;;;2.00;1.65;;;21.80;99.90;;;;;;5042322;28;20544;-68
2022/08/07 03:00:16;;;;;;;2.90;1.60;;;21.70;99.90;;;;;;5008474;28;20021;-75
2022/08/07 03:02:46;;;;;;;4.15;1.70;;;21.70;99.90;;;;;;4993745;28;20025;-77
2022/08/07 03:05:15;;;;;;;4.17;1.63;;;21.60;99.90;;;;;;5002457;28;20034;-65
2022/08/07 03:07:42;;;;;;;6.32;1.52;;;;;;;;;;5023897;28;20029;-76
2022/08/07 03:10:09;;;;;;;5.43;1.95;;;21.60;99.90;;;;;;5007949;28;20026;-74
2022/08/07 03:12:36;;;;;;;2.95;1.60;;;21.50;99.90;;;;;;5010270;28;20061;-77
2022/08/07 03:15:08;;;;;;;4.88;1.83;;;21.40;99.90;;;;;;5025884;28;20092;-76
2022/08/07 03:17:36;;;;;;;6.40;1.83;;;21.50;99.90;;;;;;5037515;28;20148;-75
2022/08/07 03:20:06;;;;;;;1.85;1.42;;;21.40;99.90;;;;;;5003004;28;20030;-77
2022/08/07 03:22:33;;;;;;;2.30;1.70;;;;;;;;;;5008796;28;20026;-62
2022/08/07 03:25:05;;;;;;;2.88;1.45;;;;;;;;;;5010815;28;20026;-63
2022/08/07 03:27:40;;;;;;;2.85;1.52;;;;;;;;;;4999870;28;20085;-62
2022/08/07 03:30:06;;;;;;;3.53;1.73;;;21.50;99.90;;;;;;5009120;28;20436;-77
2022/08/07 03:32:38;;;;;;;2.53;1.48;;;21.30;99.90;;;;;;5008178;28;20061;-72
2022/08/07 03:35:10;;;;;;;2.05;1.50;;;21.40;99.90;;;;;;5003504;28;20522;-76
2022/08/07 03:37:37;;;;;;;3.70;1.60;;;21.40;99.90;;;;;;5032832;28;20480;-75
2022/08/07 03:40:05;;;;;;;5.00;1.92;;;21.40;99.90;;;;;;5029731;28;20038;-77
2022/08/07 03:42:33;;;;;;;3.33;1.90;;;21.30;99.90;;;;;;5009081;28;20076;-74
2022/08/07 03:45:01;;;;;;;2.53;1.58;;;21.20;99.90;;;;;;5043063;28;20066;-75
2022/08/07 03:47:30;;;;;;;2.17;1.85;;;21.40;99.90;;;;;;5009737;28;20383;-78
2022/08/07 03:49:57;;;;;;;2.22;1.70;;;21.40;99.90;;;;;;5031663;28;20030;-69
2022/08/07 03:52:27;;;;;;;1.83;1.35;;;21.50;99.90;;;;;;5013945;28;20030;-76
2022/08/07 03:54:58;;;;;;;2.55;1.70;;;21.60;99.90;;;;;;5026046;28;20022;-74
2022/08/07 03:57:28;;;;;;;3.88;1.40;;;21.60;99.90;;;;;;5031381;28;20125;-77
2022/08/07 03:59:54;;;;;;;2.85;2.03;;;21.60;99.90;;;;;;5014843;28;20022;-74
2022/08/07 04:02:21;;;;;;;5.07;2.00;;;21.80;99.90;;;;;;5033128;28;20038;-77
2022/08/07 04:04:48;;;;;;;2.67;1.55;;;21.90;99.90;;;;;;5014320;28;20516;-78
2022/08/07 04:07:18;;;;;;;1.95;1.75;;;22.00;99.90;;;;;;5015017;28;20029;-76
2022/08/07 04:09:47;;;;;;;3.70;1.95;;;22.10;99.90;;;;;;5013309;28;20026;-77
2022/08/07 04:12:13;;;;;;;3.28;2.10;;;22.20;99.90;;;;;;5015775;28;20453;-77
2022/08/07 04:14:41;;;;;;;4.95;2.17;;;22.20;99.90;;;;;;5029894;28;20392;-78
2022/08/07 04:17:07;;;;;;;3.40;2.00;;;22.50;99.90;;;;;;5014886;28;20026;-77
2022/08/07 04:19:34;;;;;;;2.47;1.88;;;22.50;99.90;;;;;;5010316;28;20065;-77
2022/08/07 04:22:01;;;;;;;4.28;1.80;;;22.60;99.90;;;;;;5009387;28;20029;-77
2022/08/07 04:24:32;;;;;;;4.97;2.20;;;22.90;99.90;;;;;;5029990;28;20383;-75
2022/08/07 04:27:02;;;;;;;3.78;1.80;;;22.90;99.90;;;;;;5027898;28;20125;-77
2022/08/07 04:29:28;;;;;;;2.83;1.98;;;23.10;99.90;;;;;;5029726;28;20600;-78
2022/08/07 04:31:55;;;;;;;5.40;2.10;;;23.30;99.90;;;;;;5013580;28;20053;-78
2022/08/07 04:34:23;;;;;;;2.42;1.90;;;23.40;99.90;;;;;;5025685;28;20081;-77
2022/08/07 04:36:49;;;;;;;2.75;2.00;;;23.80;99.90;;;;;;5012927;28;20030;-77
2022/08/07 04:39:15;;;;;;;3.33;1.80;;;23.80;99.90;;;;;;5013532;28;20081;-78
2022/08/07 04:41:41;;;;;;;3.50;2.20;;;23.50;99.90;;;;;;5012838;28;20026;-77
2022/08/07 04:44:08;;;;;;;3.33;2.28;;;23.10;99.90;;;;;;5045470;28;20553;-78
2022/08/07 04:46:57;;;;;;;;;;;22.80;99.90;;;;;;5013502;28;20041;-77
2022/08/07 04:49:35;;;;;;;3.38;1.90;;;22.60;99.90;;;;;;5046242;28;19910;-74
2022/08/07 04:52:37;;;;;;;4.30;1.80;;;22.40;99.90;;;;;;5014119;28;20041;-77
2022/08/07 04:55:22;;;;;;;3.63;1.83;;;22.30;99.90;;;;;;5017312;28;20040;-78
2022/08/07 04:58:18;;;;;;;2.53;2.00;;;22.40;99.90;;;;;;5011286;28;20030;-78
2022/08/07 05:00:54;;;;;;;7.00;2.13;;;;;;;;;;5008639;28;20033;-78
2022/08/07 05:04:00;;;;;;;2.78;1.70;;;21.90;99.90;;;;;;5001674;28;20480;-75
2022/08/07 05:06:39;;;;;;;4.35;2.45;;;21.90;99.90;;;;;;5028748;28;20506;-78
2022/08/07 05:09:15;;;;;;;2.67;1.75;;;21.90;99.90;;;;;;5017644;28;20396;-78
2022/08/07 05:11:48;;;;;;;3.72;2.25;;;21.90;99.90;;;;;;5044393;28;20056;-77
2022/08/07 05:14:44;;;;;;;2.03;1.77;;;22.00;99.90;;;;;;5008892;28;20038;-79
2022/08/07 05:17:14;;;;;;;9.13;2.80;;;22.00;99.90;;;;;;5027156;28;20488;-78
2022/08/07 05:19:45;;;;;;;6.50;2.20;;;22.00;99.90;;;;;;5034467;28;20053;-78
2022/08/07 05:22:15;;;;;;;5.78;2.38;;;22.10;99.90;;;;;;5010652;28;20018;-78
2022/08/07 05:24:44;;;;;;;6.35;2.33;;;22.40;99.90;;;;;;5012392;28;20057;-78
2022/08/07 05:27:14;;;;;;;7.85;2.70;;;22.50;99.90;;;;;;5028749;28;20029;-75
2022/08/07 05:29:42;;;;;;;3.15;2.20;;;22.60;99.90;;;;;;5022404;28;20484;-79
2022/08/07 05:32:11;;;;;;;4.00;2.22;;;22.70;99.90;;;;;;5012273;28;20033;-79
2022/08/07 05:34:40;;;;;;;5.13;2.42;;;22.80;99.90;;;;;;5045202;28;20254;-79
2022/08/07 05:37:07;;;;;;;4.60;2.50;;;22.90;99.90;;;;;;5012111;28;20022;-79
2022/08/07 05:39:51;;;;;;;4.50;2.28;;;23.10;99.90;;;;;;5028623;28;20124;-77
2022/08/07 05:42:17;;;;;;;6.75;2.25;;;23.10;99.90;;;;;;5012069;28;20515;-79
2022/08/07 05:44:44;;;;;;;3.13;2.47;;;23.20;99.90;;;;;;5045197;28;20084;-77
2022/08/07 05:47:11;;;;;;;3.83;2.20;;;23.10;99.90;;;;;;5012547;28;20579;-76
2022/08/07 05:49:38;;;;;;;3.63;2.10;;;23.20;99.90;;;;;;5029462;28;20026;-79
2022/08/07 05:52:04;;;;;;;4.65;2.28;;;23.40;99.90;;;;;;5038083;28;20101;-78
2022/08/07 05:54:31;;;;;;;5.55;2.47;;;23.50;99.90;;;;;;5005890;28;20029;-78
2022/08/07 05:57:00;;;;;;;2.72;2.28;;;23.40;99.90;;;;;;5014776;28;20022;-76
2022/08/07 05:59:26;;;;;;;4.45;2.13;;;23.60;99.90;;;;;;5013818;28;20022;-77
2022/08/07 06:01:58;;;;;;;6.13;2.20;;;23.40;99.90;;;;;;5029141;28;20053;-79
2022/08/07 06:04:26;;;;;;;3.58;2.05;;;23.50;99.90;;;;;;5026683;28;20668;-78
2022/08/07 06:06:53;;;;;;;10.48;2.65;;;23.50;99.90;;;;;;5011797;28;20025;-78
2022/08/07 06:09:19;;;;;;;3.88;2.22;;;23.80;99.90;;;;;;5011546;28;20034;-79
2022/08/07 06:11:47;;;;;;;5.97;2.75;;;23.90;99.90;;;;;;5011608;28;20025;-74
2022/08/07 06:14:15;;;;;;;4.25;2.03;;;;;;;;;;5007920;28;20416;-79
2022/08/07 06:16:46;;;;;;;3.17;2.35;;;24.10;99.10;;;;;;5023690;28;20372;-80
2022/08/07 06:19:13;;;;;;;7.03;3.00;;;24.00;99.20;;;;;;5008915;28;20086;-79
2022/08/07 06:21:40;;;;;;;4.03;2.25;;;;;;;;;;5005591;28;20026;-76
2022/08/07 06:24:07;;;;;;;5.22;2.58;;;24.30;98.40;;;;;;5028402;28;20488;-77
2022/08/07 06:26:33;;;;;;;4.40;2.25;;;24.20;99.50;;;;;;5013174;28;20022;-80
2022/08/07 06:29:00;;;;;;;5.15;2.40;;;;;;;;;;5008681;28;20030;-75
2022/08/07 06:31:28;;;;;;;7.38;3.55;;;24.60;97.40;;;;;;5002343;28;20022;-78
2022/08/07 06:33:55;;;;;;;7.18;2.72;;;24.40;97.40;;;;;;5027712;28;20069;-81
2022/08/07 06:36:21;;;;;;;4.03;2.78;;;24.40;97.20;;;;;;5011859;28;20472;-80
2022/08/07 06:38:53;;;;;;;11.32;3.67;;;24.50;96.30;;;;;;5011560;28;20040;-77
2022/08/07 06:41:30;;;;;;;5.38;3.08;;;24.40;96.80;;;;;;5028461;28;20021;-78
2022/08/07 06:43:58;;;;;;;3.38;2.58;;;24.50;96.10;;;;;;5010350;28;20082;-65
2022/08/07 06:46:24;;;;;;;4.32;2.85;;;;;;;;;;5012227;28;20030;-74
2022/08/07 06:48:52;;;;;;;6.68;2.60;;;24.50;95.90;;;;;;5027169;28;20026;-74
2022/08/07 06:51:26;;;;;;;3.55;2.65;;;24.60;96.60;;;;;;5010398;28;20095;-71
2022/08/07 06:53:55;;;;;;;7.35;2.78;;;;;;;;;;5010420;28;20045;-77
2022/08/07 06:56:46;;;;;;;4.60;2.50;;;;;;;;;;5026937;28;20022;-71
2022/08/07 06:59:18;;;;;;;6.32;3.03;;;;;;;;;;5027014;28;20546;-78
2022/08/07 07:01:49;;;;;;;4.43;2.65;;;25.30;94.20;;;;;;5027007;28;20113;-73
2022/08/07 07:04:16;;;;;;;5.20;2.97;;;25.20;94.30;;;;;;5011640;28;20029;-75
2022/08/07 07:06:43;;;;;;;4.53;2.63;;;25.60;98.60;;;;;;5043055;28;20502;-79
2022/08/07 07:09:26;;;;;;;4.10;2.70;;;;;;;;;;5009752;28;20045;-76
2022/08/07 07:12:05;;;;;;;3.50;2.53;;;;;;;;;;5012891;28;20042;-72
2022/08/07 07:15:00;;;;;;;8.63;2.78;;;26.10;91.90;;;;;;5010830;28;20056;-75
2022/08/07 07:17:26;;;;;;;11.23;3.15;;;;;;;;;;5028341;28;20057;-77
2022/08/07 07:19:56;;;;;;;8.38;3.13;;;26.30;90.90;;;;;;5028542;28;20038;-73
2022/08/07 07:22:23;;;;;;;5.30;2.83;;;26.20;90.60;;;;;;5028734;28;20038;-77
2022/08/07 07:24:50;;;;;;;6.03;2.80;;;26.10;90.70;;;;;;5028892;28;20032;-72
2022/08/07 07:27:19;;;;;;;6.43;2.80;;;26.30;90.50;;;;;;5032455;28;20022;-77
2022/08/07 07:29:50;;;;;;;8.57;3.00;;;26.30;91.00;;;;;;5032910;28;20036;-69
2022/08/07 07:32:17;;;;;;;4.15;3.03;;;26.40;90.90;;;;;;5032211;28;20025;-71
2022/08/07 07:34:46;;;;;;;4.25;2.70;;;;;;;;;;5032038;28;20053;-78
2022/08/07 07:37:13;;;;;;;7.95;3.22;;;26.30;99.90;;;;;;5032285;28;20032;-79
2022/08/07 07:39:40;;;;;;;5.50;3.05;;;26.30;90.60;;;;;;5033384;28;20026;-75
2022/08/07 07:42:09;;;;;;;5.75;3.05;;;26.50;90.40;;;;;;5033238;28;20045;-79
2022/08/07 07:44:40;;;;;;;5.53;3.15;;;26.20;89.40;;;;;;5032986;28;20654;-76
2022/08/07 07:47:08;;;;;;;7.10;2.83;;;;;;;;;;5033285;28;20045;-75
2022/08/07 07:49:36;;;;;;;5.18;2.70;;;27.00;96.80;;;;;;5033077;28;20029;-75
2022/08/07 07:52:02;;;;;;;5.88;3.25;;;;;;;;;;5033069;28;20041;-75
2022/08/07 07:54:30;;;;;;;5.65;2.70;;;27.40;88.60;;;;;;5013231;28;20046;-76
2022/08/07 07:56:57;;;;;;;4.80;3.20;;;27.10;89.70;;;;;;4995931;28;20020;-75
2022/08/07 07:59:25;;;;;;;7.60;3.47;;;27.00;89.50;;;;;;4995753;28;20538;-74
2022/08/07 08:01:53;;;;;;;4.93;3.15;;;27.40;90.20;;;;;;4993322;28;20118;-73
2022/08/07 08:04:20;;;;;;;7.30;3.58;;;27.00;90.00;;;;;;4995921;28;20353;-79
2022/08/07 08:06:46;;;;;;;4.88;3.10;;;26.90;89.30;;;;;;4996459;28;20026;-78
2022/08/07 08:09:17;;;;;;;8.02;3.25;;;26.80;90.30;;;;;;4995600;28;20113;-79
2022/08/07 08:11:44;;;;;;;4.72;2.90;;;27.00;89.50;;;;;;4993253;28;20030;-79
2022/08/07 08:14:10;;;;;;;8.70;3.75;;;26.90;89.90;;;;;;4996006;28;20050;-75
2022/08/07 08:16:40;;;;;;;6.28;3.35;;;26.90;89.20;;;;;;4995723;28;20081;-78
2022/08/07 08:19:09;;;;;;;6.93;3.33;;;26.80;89.40;;;;;;4995642;28;20112;-80
2022/08/07 08:27:13;;;;;;;3.97;3.20;;;26.90;90.50;;;;;;4994655;28;20038;-76
2022/08/07 08:29:43;;;;;;;4.70;2.92;;;26.90;89.10;;;;;;4995264;28;20077;-75
2022/08/07 08:32:12;;;;;;;3.42;2.80;;;27.20;89.30;;;;;;4995381;28;20026;-76
2022/08/07 08:34:41;;;;;;;4.00;2.92;;;27.20;88.30;;;;;;4994686;28;20031;-75
2022/08/07 08:37:08;;;;;;;7.25;2.80;;;27.40;89.70;;;;;;4992293;28;20366;-81
2022/08/07 08:39:35;;;;;;;8.98;3.50;;;27.40;89.00;;;;;;4980924;28;20495;-80
2022/08/07 08:42:10;;;;;;;14.10;2.83;;;27.30;89.50;;;;;;4997302;28;20027;-80
2022/08/07 08:45:06;;;;;;;3.70;2.90;;;27.40;88.20;;;;;;5009018;28;20038;-79
2022/08/07 08:47:58;;;;;;;12.20;3.67;;;27.70;87.80;;;;;;5014763;28;20041;-79
2022/08/07 08:50:29;;;;;;;;;;;27.80;87.50;;;;;;5015805;28;20036;-80
2022/08/07 08:53:08;;;;;;;6.68;3.08;;;27.50;86.50;;;;;;5014436;28;20404;-79
2022/08/07 08:55:34;;;;;;;5.55;3.30;;;;;;;;;;5015160;28;20036;-78
2022/08/07 08:58:05;;;;;;;5.00;2.65;;;27.80;87.60;;;;;;5014870;28;20036;-80
2022/08/07 09:00:43;;;;;;;6.07;3.13;;;27.80;86.00;;;;;;5014799;28;20034;-80
2022/08/07 09:03:28;;;;;;;7.47;3.25;;;28.00;85.60;;;;;;5015017;28;20396;-79
2022/08/07 09:06:01;;;;;;;4.55;2.80;;;28.20;94.10;;;;;;5014818;28;20038;-75
2022/08/07 09:08:30;;;;;;;6.80;3.08;;;28.00;94.10;;;;;;5015268;28;20037;-79
2022/08/07 09:11:38;;;;;;;5.38;3.20;;;28.30;92.80;;;;;;5015557;28;20100;-80
2022/08/07 09:14:37;;;;;;;6.13;3.60;;;28.20;97.90;;;;;;5012949;28;20046;-81
2022/08/07 09:17:17;;;;;;;4.53;3.15;;;28.70;97.10;;;;;;4932431;29;20047;-81
2022/08/07 09:20:04;;;;;;;6.43;3.58;;;28.40;84.20;;;;;;4934182;29;20153;-80
2022/08/07 09:22:54;;;;;;;4.85;3.53;;;28.30;87.00;;;;;;4932743;29;20411;-81
2022/08/07 09:25:41;;;;;;;4.40;3.45;;;28.20;89.00;;;;;;4934962;29;20031;-79
2022/08/07 09:28:18;;;;;;;4.68;3.15;;;28.20;87.50;;;;;;4934385;29;20040;-80
2022/08/07 09:30:49;;;;;;;6.40;3.15;;;28.60;85.30;;;;;;4933746;29;20039;-79
2022/08/07 09:33:31;;;;;;;4.70;3.35;;;28.40;84.10;;;;;;4935344;29;20080;-81
2022/08/07 09:36:16;;;;;;;9.10;2.97;;;28.30;84.10;;;;;;4934100;29;20035;-82
2022/08/07 09:38:51;;;;;;;6.25;3.55;;;28.50;90.30;;;;;;4933526;29;20202;-81
2022/08/07 09:41:34;;;;;;;5.50;2.95;;;28.90;84.80;;;;;;4923284;29;20079;-81
2022/08/07 09:44:18;;;;;;;7.68;3.45;;;28.40;81.30;;;;;;4934771;29;20047;-80
2022/08/07 09:47:02;;;;;;;4.72;3.53;;;28.50;82.20;;;;;;4934111;29;20040;-79
2022/08/07 09:49:44;;;;;;;5.60;3.50;;;28.50;85.30;;;;;;4937996;28;20032;-81
2022/08/07 09:52:29;;;;;;;6.13;3.33;;;28.70;82.90;;;;;;4953957;28;20470;-80
2022/08/07 09:55:19;;;;;;;6.55;3.58;;;28.80;83.60;;;;;;5001835;28;20045;-81
2022/08/07 09:58:15;;;;;;;5.82;4.18;;;28.50;83.50;;;;;;5013700;28;20026;-80
2022/08/07 10:00:47;;;;;;;4.30;3.40;;;28.70;83.30;;;;;;5017731;28;20471;-78
2022/08/07 10:04:04;;;;;;;4.93;3.10;;;28.60;82.40;;;;;;5000598;28;20165;-81
2022/08/07 10:06:38;;;;;;;3.63;3.20;;;28.60;83.50;;;;;;5027511;28;20029;-82
2022/08/07 10:09:23;;;;;;;5.97;3.70;;;28.70;83.40;;;;;;5021405;28;20041;-81
2022/08/07 10:12:04;;;;;;;7.15;3.95;;;28.90;84.50;;;;;;5030178;28;20033;-82
2022/08/07 10:14:35;;;;;;;7.63;3.23;;;28.80;82.50;;;;;;5030232;28;20040;-81
2022/08/07 10:17:25;;;;;;;4.80;3.53;;;28.30;84.70;;;;;;5029522;28;20252;-83
2022/08/07 10:20:06;;;;;;;6.22;3.53;;;28.90;85.30;;;;;;5029730;28;20069;-79
2022/08/07 10:22:40;;;;;;;7.95;3.67;;;28.80;82.10;;;;;;5030544;28;20036;-81
2022/08/07 10:25:23;;;;;;;6.05;3.70;;;29.20;85.20;;;;;;5030005;28;20480;-82
2022/08/07 10:27:52;;;;;;;3.45;3.13;;;29.10;83.20;;;;;;5029233;28;20021;-78
2022/08/07 10:30:35;;;;;;;5.80;3.78;;;29.20;82.40;;;;;;5029574;28;20411;-71
2022/08/07 10:33:12;;;;;;;8.30;4.20;;;29.00;81.70;;;;;;5030818;28;20033;-76
2022/08/07 10:36:03;;;;;;;5.47;3.60;;;29.20;84.60;;;;;;5029709;28;20172;-80
2022/08/07 10:38:28;;;;;;;6.47;3.60;;;29.10;82.60;;;;;;5030237;28;20039;-80
2022/08/07 10:41:15;;;;;;;5.88;3.50;;;29.00;81.00;;;;;;5030108;28;20025;-80
2022/08/07 10:44:06;;;;;;;5.18;3.75;;;29.00;82.40;;;;;;5004728;28;20400;-78
2022/08/07 10:46:40;;;;;;;4.75;3.38;;;29.30;82.50;;;;;;5002345;28;20511;-80
2022/08/07 10:49:31;;;;;;;8.15;3.97;;;28.80;81.70;;;;;;5011337;28;20034;-77
2022/08/07 10:52:02;;;;;;;5.68;3.50;;;28.90;81.00;;;;;;5040458;28;20098;-80
2022/08/07 10:55:01;;;;;;;6.22;3.90;;;29.00;81.60;;;;;;5040754;28;20040;-80
2022/08/07 10:57:57;;;;;;;6.18;3.70;;;29.10;80.20;;;;;;5049655;28;20598;-80
2022/08/07 11:00:30;;;;;;;5.13;3.38;;;29.30;79.80;;;;;;5048025;28;20475;-80
2022/08/07 11:03:17;;;;;;;5.72;3.60;;;29.10;78.90;;;;;;5037792;28;20159;-80
2022/08/07 11:06:18;;;;;;;3.97;3.47;;;29.50;81.50;;;;;;5050017;28;20082;-76
2022/08/07 11:08:51;;;;;;;6.78;3.80;;;29.70;91.50;;;;;;5039009;28;20124;-81
2022/08/07 11:11:24;;;;;;;5.80;3.50;;;29.80;80.80;;;;;;5050012;28;20040;-81
2022/08/07 11:14:24;;;;;;;7.13;3.28;;;29.70;79.80;;;;;;5049932;28;20411;-80
2022/08/07 11:16:58;;;;;;;3.72;3.30;;;29.70;78.70;;;;;;5049164;28;20483;-80
2022/08/07 11:19:44;;;;;;;6.80;3.70;;;29.50;79.10;;;;;;5042891;28;20120;-81
2022/08/07 11:22:28;;;;;;;5.18;3.75;;;29.60;79.20;;;;;;5041609;28;20041;-81
2022/08/07 11:24:59;;;;;;;6.85;3.70;;;29.70;79.10;;;;;;5037355;28;20117;-81
2022/08/07 11:27:52;;;;;;;5.60;4.03;;;29.80;77.80;;;;;;5039861;28;20020;-81
2022/08/07 11:30:24;;;;;;;6.75;3.67;;;29.60;79.70;;;;;;5003331;28;20022;-80
2022/08/07 11:32:53;;;;;;;8.82;3.67;;;29.80;79.20;;;;;;5011927;28;20379;-81
2022/08/07 11:35:32;;;;;;;4.20;2.90;;;29.70;79.70;;;;;;5011876;28;20045;-79
2022/08/07 11:38:12;;;;;;;4.05;3.38;;;29.70;78.70;;;;;;5002041;28;20105;-82
2022/08/07 11:40:46;;;;;;;6.97;3.70;;;29.80;87.00;;;;;;5011309;28;20038;-82
2022/08/07 11:43:18;;;;;;;8.02;4.22;;;30.00;79.20;;;;;;5012495;28;20111;-77
2022/08/07 11:46:07;;;;;;;4.95;3.88;;;30.00;79.70;;;;;;5011657;28;20388;-80
2022/08/07 11:48:39;;;;;;;9.32;3.50;;;29.90;78.30;;;;;;5012371;28;20030;-81
2022/08/07 11:51:08;;;;;;;5.85;3.63;;;29.80;79.50;;;;;;5023228;28;20026;-79
2022/08/07 11:53:56;;;;;;;5.72;3.35;;;29.90;79.40;;;;;;5012170;28;20156;-83
2022/08/07 11:57:00;;;;;;;7.65;4.22;;;29.90;78.50;;;;;;5012125;28;20053;-81
2022/08/07 11:59:47;;;;;;;5.90;4.00;;;30.00;79.40;;;;;;5015414;28;20038;-80
2022/08/07 12:02:25;;;;;;;6.18;3.67;;;29.90;81.40;;;;;;5001437;28;20125;-83
2022/08/07 12:05:25;;;;;;;5.72;3.75;;;30.20;81.20;;;;;;5011556;28;20022;-77
2022/08/07 12:07:52;;;;;;;5.72;3.80;;;30.20;80.20;;;;;;5012265;28;20030;-84
2022/08/07 12:10:26;;;;;;;6.85;3.80;;;30.00;80.30;;;;;;5012405;28;20022;-81
2022/08/07 12:13:26;;;;;;;5.35;3.80;;;29.90;79.00;;;;;;5016347;28;20430;-84
2022/08/07 12:16:03;;;;;;;5.05;3.83;;;30.00;78.00;;;;;;5033832;28;20061;-84
2022/08/07 12:18:54;;;;;;;5.45;3.92;;;29.90;79.40;;;;;;5033933;28;20415;-81
2022/08/07 12:21:27;;;;;;;5.65;3.80;;;30.10;78.10;;;;;;5034907;28;20040;-81
2022/08/07 12:24:21;;;;;;;5.28;3.92;;;30.00;78.00;;;;;;5034037;28;20017;-81
2022/08/07 12:26:57;;;;;;;5.70;3.88;;;30.10;78.20;;;;;;5034516;28;20113;-80
2022/08/07 12:29:44;;;;;;;4.38;3.25;;;30.20;78.30;;;;;;5033793;28;20036;-80
2022/08/07 12:32:33;;;;;;;5.55;3.67;;;30.10;77.40;;;;;;5033625;28;20551;-80
2022/08/07 12:35:03;;;;;;;3.88;3.40;;;30.20;77.50;;;;;;5033650;28;20045;-80
2022/08/07 12:37:29;;;;;;;5.22;3.80;;;30.00;78.10;;;;;;5041989;28;20045;-81
2022/08/07 12:39:57;;;;;;;7.20;3.90;;;30.10;80.90;;;;;;5031936;28;20041;-82
2022/08/07 12:42:27;;;;;;;5.55;3.72;;;30.20;77.80;;;;;;5040172;28;20060;-80
2022/08/07 12:44:56;;;;;;;6.82;3.88;;;30.20;75.80;;;;;;5047707;28;20045;-82
2022/08/07 12:47:41;;;;;;;5.95;3.92;;;30.20;74.60;;;;;;5012887;28;20484;-82
2022/08/07 12:50:34;;;;;;;7.53;3.83;;;30.20;75.90;;;;;;5035007;28;20037;-82
2022/08/07 12:53:16;;;;;;;7.47;4.40;;;30.50;94.90;;;;;;5012669;28;20084;-82
2022/08/07 12:55:49;;;;;;;4.80;3.83;;;30.80;95.50;;;;;;5006272;28;20164;-76
2022/08/07 12:58:17;;;;;;;6.10;3.53;;;;;;;;;;5012019;28;20021;-81
2022/08/07 13:00:53;;;;;;;6.53;3.85;;;30.80;76.40;;;;;;5013833;28;20029;-82
2022/08/07 13:03:40;;;;;;;4.65;3.40;;;30.70;75.10;;;;;;5014232;28;20393;-82
2022/08/07 13:06:20;;;;;;;6.38;4.13;;;30.60;75.30;;;;;;5016793;28;20021;-81
2022/08/07 13:09:10;;;;;;;6.60;3.65;;;30.60;75.40;;;;;;5013891;28;20025;-81
2022/08/07 13:11:48;;;;;;;6.82;4.18;;;30.70;78.20;;;;;;5009756;28;20321;-82
2022/08/07 13:14:29;;;;;;;10.35;4.18;;;30.60;74.50;;;;;;5025772;28;20033;-75
2022/08/07 13:17:10;;;;;;;4.95;3.40;;;30.90;76.30;;;;;;5014017;28;20030;-81
2022/08/07 13:19:43;;;;;;;5.28;3.78;;;;;;;;;;5029280;28;20096;-82
2022/08/07 13:22:15;;;;;;;7.53;4.18;;;31.10;73.70;;;;;;5014065;28;20034;-81
2022/08/07 13:25:10;;;;;;;4.93;3.85;;;31.10;77.70;;;;;;5013465;28;20026;-69
2022/08/07 13:27:58;;;;;;;4.85;4.00;;;30.90;73.90;;;;;;5015417;28;20038;-80
2022/08/07 13:30:26;;;;;;;13.68;3.72;;;30.80;72.40;;;;;;5017089;28;20042;-63
2022/08/07 13:32:54;;;;;;;6.53;3.80;;;30.80;72.40;;;;;;5014724;28;20016;-80
2022/08/07 13:35:25;;;;;;;5.78;3.75;;;30.80;71.50;;;;;;5014374;28;20038;-80
2022/08/07 13:38:11;;;;;;;5.03;3.83;;;;;;;;;;5014528;28;20121;-76
2022/08/07 13:40:42;;;;;;;6.97;4.07;;;;;;;;;;5029703;28;20121;-81